Home > Products > Valid Products > MTR

000
SAUS45 KGGW 281349
MTRJDN
METAR KJDN 281348Z AUTO 00000KT 17/08 A3028 RMK AO1 SLP243 T01720083





000
SAUS45 KGGW 281249
MTRJDN
METAR KJDN 281248Z AUTO 00000KT 12/05 A3028 RMK AO1 SLP244 T01220050





000
SAUS45 KGGW 281149
MTRJDN
METAR KJDN 281148Z AUTO 27003KT 09/05 A3028 RMK AO1 SLP246 T00940050
10156 20094 55000





000
SAUS45 KGGW 281049
MTRJDN
METAR KJDN 281048Z AUTO 00000KT 11/06 A3027 RMK AO1 SLP242 T01110056





000
SAUS45 KGGW 280949
MTRJDN
METAR KJDN 280948Z AUTO 08003KT 15/08 A3027 RMK AO1 SLP240 T01500078





000
SAUS45 KGGW 280849
MTRJDN
METAR KJDN 280848Z AUTO 00000KT 11/05 A3028 RMK AO1 SLP245 T01110050
51005





000
SAUS45 KGGW 280749
MTRJDN
METAR KJDN 280748Z AUTO 00000KT 12/04 A3028 RMK AO1 SLP245 T01220044





000
SAUS45 KGGW 280649
MTRJDN
METAR KJDN 280648Z AUTO 00000KT 13/06 A3027 RMK AO1 SLP243 T01330056
403060072





000
SAUS45 KGGW 280549
MTRJDN
METAR KJDN 280548Z AUTO 00000KT 16/06 A3026 RMK AO1 SLP237 T01560056
10294 20150 51006





000
SAUS45 KGGW 280449
MTRJDN
METAR KJDN 280448Z AUTO 04004KT 17/06 A3026 RMK AO1 SLP237 T01720061





000
SAUS45 KGGW 280349
MTRJDN
METAR KJDN 280348Z AUTO 06005KT 21/06 A3025 RMK AO1 SLP232 T02060056





000
SAUS45 KGGW 280249
MTRJDN
METAR KJDN 280248Z AUTO 07007KT 23/06 A3024 RMK AO1 SLP228 T02330061
53003





000
SAUS45 KGGW 280149
MTRJDN
METAR KJDN 280148Z AUTO 03010KT 27/05 A3023 RMK AO1 SLP225 T02670050





000
SAUS45 KGGW 280049
MTRJDN
METAR KJDN 280048Z AUTO 04009KT 28/05 A3023 RMK AO1 SLP230 T02830050





000
SAUS45 KGGW 272349
MTRJDN
METAR KJDN 272348Z AUTO 36005G16KT 29/04 A3023 RMK AO1 SLP232
T02890039 10306 20256 56006





000
SAUS45 KGGW 272249
MTRJDN
METAR KJDN 272248Z AUTO 35010KT 30/04 A3024 RMK AO1 SLP231 T03000044





000
SAUS45 KGGW 272149
MTRJDN
METAR KJDN 272148Z AUTO 29/04 A3024 RMK AO1 SLP233 T02890044





000
SAUS45 KGGW 272049
MTRJDN
METAR KJDN 272048Z AUTO 36008KT 320V040 29/04 A3025 RMK AO1 SLP237
T02890044 56009





000
SAUS45 KGGW 271949
MTRJDN
METAR KJDN 271948Z AUTO VRB03G19KT 28/04 A3026 RMK AO1 SLP239
T02780044





000
SAUS45 KGGW 271849
MTRJDN
METAR KJDN 271848Z AUTO 34009KT 28/06 A3027 RMK AO1 SLP241 T02780056





000
SAUS45 KGGW 271749
MTRJDN
METAR KJDN 271748Z AUTO 26/07 A3028 RMK AO1 SLP246 T02560072 10256
20078 58006





000
SAUS45 KGGW 271649
MTRJDN
METAR KJDN 271648Z AUTO 00000KT 23/09 A3029 RMK AO1 SLP253 T02330089





000
SAUS45 KGGW 271550
MTRJDN
METAR KJDN 271548Z AUTO VRB03KT 23/09 A3030 RMK AO1 SLP249 T02280089





000
SAUS45 KGGW 271449
MTRJDN
METAR KJDN 271448Z AUTO 00000KT 21/09 A3030 RMK AO1 SLP249 T02060094
51006





000
SAUS45 KGGW 271349
MTRJDN
METAR KJDN 271348Z AUTO 00000KT 15/09 A3029 RMK AO1 SLP251 T01500089





000
SAUS45 KGGW 271249
MTRJDN
METAR KJDN 271248Z AUTO 00000KT 11/07 A3028 RMK AO1 SLP250 T01060067





000
SAUS45 KGGW 271149
MTRJDN
METAR KJDN 271148Z AUTO 25003KT 08/06 A3027 RMK AO1 SLP249 T00780056
10128 20072 51010





000
SAUS45 KGGW 271049
MTRJDN
METAR KJDN 271048Z AUTO 28004KT 09/07 A3027 RMK AO1 SLP245 T00940067





000
SAUS45 KGGW 270949
MTRJDN
METAR KJDN 270948Z AUTO 29003KT 10/07 A3025 RMK AO1 SLP239 T01000067





000
SAUS45 KGGW 270849
MTRJDN
METAR KJDN 270848Z AUTO 28005KT 10/07 A3024 RMK AO1 SLP236 T01000067
51009





000
SAUS45 KGGW 270749
MTRJDN
METAR KJDN 270748Z AUTO 29005KT 11/07 A3024 RMK AO1 SLP233 T01110067





000
SAUS45 KGGW 270649
MTRJDN
METAR KJDN 270648Z AUTO 27004KT 12/07 A3023 RMK AO1 SLP231 T01220072
402780100





000
SAUS45 KGGW 270549
MTRJDN
METAR KJDN 270548Z AUTO 30003KT 13/08 A3022 RMK AO1 SLP226 T01330078
10267 20122 51019





000
SAUS45 KGGW 270449
MTRJDN
METAR KJDN 270448Z AUTO 25003KT 14/08 A3020 RMK AO1 SLP219 T01440078





000
SAUS45 KGGW 270349
MTRJDN
METAR KJDN 270348Z AUTO 35006KT 18/09 A3018 RMK AO1 SLP213 T01830089





000
SAUS45 KGGW 270249
MTRJDN
METAR KJDN 270248Z AUTO 01012KT 21/09 A3015 RMK AO1 SLP203 T02110089
53018





000
SAUS45 KGGW 270149
MTRJDN
METAR KJDN 270148Z AUTO 35017G22KT 24/07 A3013 RMK AO1 PK WND
33027/0110 SLP190 T02390072





000
SAUS45 KGGW 270049
MTRJDN
METAR KJDN 270048Z AUTO 33021G27KT 26/04 A3011 RMK AO1 PK WND
32028/0012 SLP187 T02560044





000
SAUS45 KGGW 262349
MTRJDN
METAR KJDN 262348Z AUTO 32018G24KT 27/04 A3010 RMK AO1 PK WND
33029/2320 SLP183 T02670044 10278 20239 53003





000
SAUS45 KGGW 262249
MTRJDN
METAR KJDN 262248Z AUTO 32021G29KT 27/05 A3009 RMK AO1 PK WND
33030/2211 SLP181 T02670050





000
SAUS45 KGGW 262149
MTRJDN
METAR KJDN 262148Z AUTO 31019G27KT 27/05 A3008 RMK AO1 PK WND
32038/2138 SLP178 T02720050





000
SAUS45 KGGW 262049
MTRJDN
METAR KJDN 262048Z AUTO 30023G35KT 27/04 A3009 RMK AO1 PK WND
31035/2045 SLP182 T02670044 53003





000
SAUS45 KGGW 261949
MTRJDN
METAR KJDN 261948Z AUTO 30021G31KT 26/04 A3008 RMK AO1 PK WND
31035/1854 SLP179 T02610044





000
SAUS45 KGGW 261849
MTRJDN
METAR KJDN 261848Z AUTO 32025G35KT 26/04 A3007 RMK AO1 PK WND
32035/1842 SLP176 T02560044





000
SAUS45 KGGW 261749
MTRJDN
METAR KJDN 261748Z AUTO 32022G33KT 24/05 A3008 RMK AO1 PK WND
31033/1745 SLP173 T02440050 10244 20122 54000





000
SAUS45 KGGW 261649
MTRJDN
METAR KJDN 261648Z AUTO 31021G29KT 23/06 A3007 RMK AO1 PK WND
30031/1635 SLP175 T02280061





000
SAUS45 KGGW 261549
MTRJDN
METAR KJDN 261548Z AUTO 31016G26KT 21/07 A3008 RMK AO1 PK WND
28026/1455 SLP174 T02060072





000
SAUS45 KGGW 261449
MTRJDN
METAR KJDN 261448Z AUTO 29015G24KT 19/07 A3008 RMK AO1 PK WND
30026/1425 SLP173 T01890072 53013





000
SAUS45 KGGW 261349
MTRJDN
METAR KJDN 261348Z AUTO 28017G22KT 18/07 A3006 RMK AO1 SLP164
T01780072





000
SAUS45 KGGW 261249
MTRJDN
METAR KJDN 261248Z AUTO 27010KT 14/07 A3004 RMK AO1 SLP161 T01390072





000
SAUS45 KGGW 261149
MTRJDN
METAR KJDN 261148Z AUTO 27009KT 13/07 A3003 RMK AO1 SLP159 T01280072
10167 20100 53012





000
SAUS45 KGGW 261049
MTRJDN
METAR KJDN 261048Z AUTO 26009KT 12/07 A3001 RMK AO1 SLP151 T01220072





000
SAUS45 KGGW 260949
MTRJDN
METAR KJDN 260948Z AUTO 26007KT 12/07 A3001 RMK AO1 SLP151 T01220072





000
SAUS45 KGGW 260849
MTRJDN
METAR KJDN 260848Z AUTO 27004KT 10/06 A3000 RMK AO1 SLP149 T01000061
51018





000
SAUS45 KGGW 260749
MTRJDN
METAR KJDN 260748Z AUTO 00000KT 13/07 A2999 RMK AO1 SLP143 T01280072





000
SAUS45 KGGW 260649
MTRJDN
METAR KJDN 260648Z AUTO 22004KT 13/07 A2997 RMK AO1 SLP137 T01330072
403110050





000
SAUS45 KGGW 260549
MTRJDN
METAR KJDN 260548Z AUTO 32004KT 17/08 A2994 RMK AO1 SLP126 T01670078
10300 20161 51036





000
SAUS45 KGGW 260449
MTRJDN
METAR KJDN 260448Z AUTO 33007KT 17/08 A2992 RMK AO1 SLP120 T01670078





000
SAUS45 KGGW 260349
MTRJDN
METAR KJDN 260348Z AUTO 36015KT 21/07 A2988 RMK AO1 PK WND
34028/0332 PRESRR SLP107 T02060072





000
SAUS45 KGGW 260249
MTRJDN
METAR KJDN 260248Z AUTO 30010KT 24/M02 A2983 RMK AO1 SLP085
T02441022 53013





000
SAUS45 KGGW 260149
MTRJDN
METAR KJDN 260148Z AUTO 29014G20KT 28/M03 A2981 RMK AO1 SLP079
T02781033





000
SAUS45 KGGW 260049
MTRJDN
METAR KJDN 260048Z AUTO 31021G28KT 29/M04 A2979 RMK AO1 PK WND
30028/0047 SLP080 T02891044





000
SAUS45 KGGW 252349
MTRJDN
METAR KJDN 252348Z AUTO 30015G26KT 30/M05 A2979 RMK AO1 PK WND
27030/2329 SLP079 T03001050 10311 20261 53000





000
SAUS45 KGGW 252249
MTRJDN
METAR KJDN 252248Z AUTO 29019G25KT 30/M05 A2978 RMK AO1 PK WND
29030/2202 SLP076 T03001050





000
SAUS45 KGGW 252149
MTRJDN
METAR KJDN 252148Z AUTO 28017G27KT 31/M06 A2978 RMK AO1 PK WND
26033/2052 SLP075 T03061056





000
SAUS45 KGGW 252049
MTRJDN
METAR KJDN 252048Z AUTO 25016G23KT 30/M03 A2978 RMK AO1 SLP077
T03001028 56020





000
SAUS45 KGGW 251949
MTRJDN
METAR KJDN 251948Z AUTO 26015G24KT 28/M02 A2981 RMK AO1 SLP085
T02781022





000
SAUS45 KGGW 251849
MTRJDN
METAR KJDN 251848Z AUTO 27015G26KT 28/M02 A2983 RMK AO1 PK WND
28026/1846 SLP090 T02781022





000
SAUS45 KGGW 251749
MTRJDN
METAR KJDN 251748Z AUTO 27015G22KT 26/00 A2985 RMK AO1 SLP099
T02610000 10261 20056 57022





000
SAUS45 KGGW 251549
MTRJDN
METAR KJDN 251548Z AUTO 23008G15KT 22/01 A2990 RMK AO1 SLP113
T02220011





000
SAUS45 KGGW 251449
MTRJDN
METAR KJDN 251448Z AUTO 30007KT 21/02 A2992 RMK AO1 SLP119 T02060017
58007





    US Dept of Commerce
    National Oceanic and Atmospheric Administration
    National Weather Service
    1325 East West Highway
    Silver Spring, MD 20910
    Page Author: NWS Internet Services Team
Disclaimer
Information Quality
Credits
Glossary
Privacy Policy
Freedom of Information Act (FOIA)
About Us
Career Opportunities